sensor_id;sensor_type;location;lat;lon;timestamp;P1;durP1;ratioP1;P2;durP2;ratioP2
21360;SDS011;10839;43.206;23.550;2023-07-31T00:02:15;6.45;;;5.80;;
21360;SDS011;10839;43.206;23.550;2023-07-31T00:04:40;6.82;;;5.80;;
21360;SDS011;10839;43.206;23.550;2023-07-31T00:07:06;6.47;;;5.88;;
21360;SDS011;10839;43.206;23.550;2023-07-31T00:09:32;6.00;;;5.45;;
21360;SDS011;10839;43.206;23.550;2023-07-31T00:11:59;6.15;;;5.65;;
21360;SDS011;10839;43.206;23.550;2023-07-31T00:14:25;6.18;;;5.57;;
21360;SDS011;10839;43.206;23.550;2023-07-31T00:16:51;6.95;;;6.25;;
21360;SDS011;10839;43.206;23.550;2023-07-31T00:19:16;6.43;;;5.82;;
21360;SDS011;10839;43.206;23.550;2023-07-31T00:21:43;8.48;;;6.03;;
21360;SDS011;10839;43.206;23.550;2023-07-31T00:24:09;7.40;;;6.60;;
21360;SDS011;10839;43.206;23.550;2023-07-31T00:26:35;6.82;;;6.20;;
21360;SDS011;10839;43.206;23.550;2023-07-31T00:29:01;6.68;;;6.07;;
21360;SDS011;10839;43.206;23.550;2023-07-31T00:31:27;7.70;;;6.97;;
21360;SDS011;10839;43.206;23.550;2023-07-31T00:33:53;7.05;;;6.30;;
21360;SDS011;10839;43.206;23.550;2023-07-31T00:36:20;7.57;;;6.10;;
21360;SDS011;10839;43.206;23.550;2023-07-31T00:38:45;7.30;;;6.60;;
21360;SDS011;10839;43.206;23.550;2023-07-31T00:41:11;7.43;;;6.35;;
21360;SDS011;10839;43.206;23.550;2023-07-31T00:43:37;7.13;;;6.32;;
21360;SDS011;10839;43.206;23.550;2023-07-31T00:46:18;7.88;;;6.82;;
21360;SDS011;10839;43.206;23.550;2023-07-31T00:48:45;7.78;;;6.95;;
21360;SDS011;10839;43.206;23.550;2023-07-31T00:51:11;8.13;;;7.32;;
21360;SDS011;10839;43.206;23.550;2023-07-31T00:53:37;7.75;;;6.90;;
21360;SDS011;10839;43.206;23.550;2023-07-31T00:56:05;6.97;;;6.35;;
21360;SDS011;10839;43.206;23.550;2023-07-31T00:58:31;8.70;;;7.20;;
21360;SDS011;10839;43.206;23.550;2023-07-31T01:00:57;7.55;;;6.85;;
21360;SDS011;10839;43.206;23.550;2023-07-31T01:03:24;8.68;;;6.97;;
21360;SDS011;10839;43.206;23.550;2023-07-31T01:08:24;7.47;;;6.78;;
21360;SDS011;10839;43.206;23.550;2023-07-31T01:11:36;7.88;;;7.18;;
21360;SDS011;10839;43.206;23.550;2023-07-31T01:14:00;9.98;;;8.98;;
21360;SDS011;10839;43.206;23.550;2023-07-31T01:16:27;11.60;;;9.23;;
21360;SDS011;10839;43.206;23.550;2023-07-31T01:18:53;12.48;;;9.63;;
21360;SDS011;10839;43.206;23.550;2023-07-31T01:21:38;8.65;;;7.75;;
21360;SDS011;10839;43.206;23.550;2023-07-31T01:24:23;8.18;;;7.30;;
21360;SDS011;10839;43.206;23.550;2023-07-31T01:26:56;8.23;;;7.47;;
21360;SDS011;10839;43.206;23.550;2023-07-31T01:32:02;10.35;;;7.97;;
21360;SDS011;10839;43.206;23.550;2023-07-31T01:34:31;9.35;;;8.23;;
21360;SDS011;10839;43.206;23.550;2023-07-31T01:36:58;10.38;;;7.95;;
21360;SDS011;10839;43.206;23.550;2023-07-31T01:39:23;10.88;;;7.75;;
21360;SDS011;10839;43.206;23.550;2023-07-31T01:41:49;8.80;;;7.90;;
21360;SDS011;10839;43.206;23.550;2023-07-31T01:44:15;8.18;;;7.47;;
21360;SDS011;10839;43.206;23.550;2023-07-31T01:46:41;9.07;;;8.05;;
21360;SDS011;10839;43.206;23.550;2023-07-31T01:49:07;8.45;;;7.72;;
21360;SDS011;10839;43.206;23.550;2023-07-31T01:51:33;9.73;;;8.82;;
21360;SDS011;10839;43.206;23.550;2023-07-31T01:54:02;11.25;;;10.02;;
21360;SDS011;10839;43.206;23.550;2023-07-31T01:56:28;11.63;;;10.10;;
21360;SDS011;10839;43.206;23.550;2023-07-31T01:58:54;14.00;;;11.25;;
21360;SDS011;10839;43.206;23.550;2023-07-31T02:01:20;16.52;;;13.25;;
21360;SDS011;10839;43.206;23.550;2023-07-31T02:03:46;17.45;;;14.07;;
21360;SDS011;10839;43.206;23.550;2023-07-31T02:06:13;17.85;;;15.10;;
21360;SDS011;10839;43.206;23.550;2023-07-31T02:08:39;14.65;;;13.13;;
21360;SDS011;10839;43.206;23.550;2023-07-31T02:11:05;11.82;;;10.07;;
21360;SDS011;10839;43.206;23.550;2023-07-31T02:13:31;11.90;;;10.38;;
21360;SDS011;10839;43.206;23.550;2023-07-31T02:15:57;13.35;;;11.48;;
21360;SDS011;10839;43.206;23.550;2023-07-31T02:18:24;11.57;;;10.35;;
21360;SDS011;10839;43.206;23.550;2023-07-31T02:20:50;17.50;;;11.48;;
21360;SDS011;10839;43.206;23.550;2023-07-31T02:23:17;12.75;;;11.45;;
21360;SDS011;10839;43.206;23.550;2023-07-31T02:25:44;17.02;;;15.23;;
21360;SDS011;10839;43.206;23.550;2023-07-31T02:28:10;32.78;;;25.13;;
21360;SDS011;10839;43.206;23.550;2023-07-31T02:30:36;23.42;;;19.42;;
21360;SDS011;10839;43.206;23.550;2023-07-31T02:33:02;27.38;;;20.48;;
21360;SDS011;10839;43.206;23.550;2023-07-31T02:35:27;21.95;;;17.17;;
21360;SDS011;10839;43.206;23.550;2023-07-31T02:37:53;20.73;;;14.98;;
21360;SDS011;10839;43.206;23.550;2023-07-31T02:40:19;20.13;;;16.00;;
21360;SDS011;10839;43.206;23.550;2023-07-31T02:42:45;18.88;;;15.75;;
21360;SDS011;10839;43.206;23.550;2023-07-31T02:45:11;18.02;;;15.60;;
21360;SDS011;10839;43.206;23.550;2023-07-31T02:47:37;21.85;;;15.73;;
21360;SDS011;10839;43.206;23.550;2023-07-31T02:50:03;50.90;;;39.60;;
21360;SDS011;10839;43.206;23.550;2023-07-31T02:52:30;90.68;;;64.25;;
21360;SDS011;10839;43.206;23.550;2023-07-31T02:54:57;34.33;;;26.33;;
21360;SDS011;10839;43.206;23.550;2023-07-31T02:57:23;23.58;;;18.83;;
21360;SDS011;10839;43.206;23.550;2023-07-31T02:59:49;20.60;;;17.65;;
21360;SDS011;10839;43.206;23.550;2023-07-31T03:02:15;19.38;;;16.13;;
21360;SDS011;10839;43.206;23.550;2023-07-31T03:04:40;19.17;;;16.13;;
21360;SDS011;10839;43.206;23.550;2023-07-31T03:07:06;19.27;;;14.95;;
21360;SDS011;10839;43.206;23.550;2023-07-31T03:09:32;53.08;;;39.70;;
21360;SDS011;10839;43.206;23.550;2023-07-31T03:11:58;76.40;;;56.67;;
21360;SDS011;10839;43.206;23.550;2023-07-31T03:14:25;46.25;;;37.13;;
21360;SDS011;10839;43.206;23.550;2023-07-31T03:16:54;24.63;;;18.35;;
21360;SDS011;10839;43.206;23.550;2023-07-31T03:19:20;20.70;;;17.08;;
21360;SDS011;10839;43.206;23.550;2023-07-31T03:21:46;17.85;;;15.70;;
21360;SDS011;10839;43.206;23.550;2023-07-31T03:24:12;23.48;;;18.48;;
21360;SDS011;10839;43.206;23.550;2023-07-31T03:26:38;26.55;;;21.55;;
21360;SDS011;10839;43.206;23.550;2023-07-31T03:29:07;17.92;;;15.65;;
21360;SDS011;10839;43.206;23.550;2023-07-31T03:31:34;67.78;;;52.08;;
21360;SDS011;10839;43.206;23.550;2023-07-31T03:34:00;27.58;;;22.15;;
21360;SDS011;10839;43.206;23.550;2023-07-31T03:36:26;20.27;;;16.05;;
21360;SDS011;10839;43.206;23.550;2023-07-31T03:38:52;17.52;;;14.48;;
21360;SDS011;10839;43.206;23.550;2023-07-31T03:41:18;19.67;;;15.02;;
21360;SDS011;10839;43.206;23.550;2023-07-31T03:43:45;20.13;;;16.55;;
21360;SDS011;10839;43.206;23.550;2023-07-31T03:46:16;23.38;;;16.48;;
21360;SDS011;10839;43.206;23.550;2023-07-31T03:48:42;30.50;;;22.45;;
21360;SDS011;10839;43.206;23.550;2023-07-31T03:51:08;20.90;;;16.48;;
21360;SDS011;10839;43.206;23.550;2023-07-31T03:53:34;17.70;;;13.98;;
21360;SDS011;10839;43.206;23.550;2023-07-31T03:56:00;17.48;;;14.50;;
21360;SDS011;10839;43.206;23.550;2023-07-31T03:58:26;16.70;;;13.10;;
21360;SDS011;10839;43.206;23.550;2023-07-31T04:00:52;24.13;;;17.17;;
21360;SDS011;10839;43.206;23.550;2023-07-31T04:03:17;69.82;;;50.65;;
21360;SDS011;10839;43.206;23.550;2023-07-31T04:05:44;30.92;;;23.08;;
21360;SDS011;10839;43.206;23.550;2023-07-31T04:08:09;20.98;;;14.82;;
21360;SDS011;10839;43.206;23.550;2023-07-31T04:10:35;16.67;;;13.85;;
21360;SDS011;10839;43.206;23.550;2023-07-31T04:13:01;13.45;;;12.10;;
21360;SDS011;10839;43.206;23.550;2023-07-31T04:15:27;13.55;;;10.88;;
21360;SDS011;10839;43.206;23.550;2023-07-31T04:17:53;11.63;;;10.43;;
21360;SDS011;10839;43.206;23.550;2023-07-31T04:20:18;12.30;;;9.65;;
21360;SDS011;10839;43.206;23.550;2023-07-31T04:22:44;11.07;;;9.32;;
21360;SDS011;10839;43.206;23.550;2023-07-31T04:25:10;22.27;;;18.55;;
21360;SDS011;10839;43.206;23.550;2023-07-31T04:27:35;12.95;;;10.20;;
21360;SDS011;10839;43.206;23.550;2023-07-31T04:30:01;15.20;;;10.75;;
21360;SDS011;10839;43.206;23.550;2023-07-31T04:32:27;13.45;;;8.52;;
21360;SDS011;10839;43.206;23.550;2023-07-31T04:34:54;12.23;;;9.07;;
21360;SDS011;10839;43.206;23.550;2023-07-31T04:37:20;17.50;;;13.88;;
21360;SDS011;10839;43.206;23.550;2023-07-31T04:39:45;17.13;;;13.63;;
21360;SDS011;10839;43.206;23.550;2023-07-31T04:42:12;16.45;;;10.93;;
21360;SDS011;10839;43.206;23.550;2023-07-31T04:44:37;11.98;;;9.82;;
21360;SDS011;10839;43.206;23.550;2023-07-31T04:47:03;13.27;;;9.57;;
21360;SDS011;10839;43.206;23.550;2023-07-31T04:49:29;10.35;;;8.55;;
21360;SDS011;10839;43.206;23.550;2023-07-31T04:51:55;12.25;;;8.10;;
21360;SDS011;10839;43.206;23.550;2023-07-31T04:54:21;14.20;;;9.68;;
21360;SDS011;10839;43.206;23.550;2023-07-31T04:56:47;9.75;;;8.00;;
21360;SDS011;10839;43.206;23.550;2023-07-31T04:59:13;12.35;;;7.63;;
21360;SDS011;10839;43.206;23.550;2023-07-31T05:01:38;9.65;;;6.80;;
21360;SDS011;10839;43.206;23.550;2023-07-31T05:04:04;10.63;;;7.35;;
21360;SDS011;10839;43.206;23.550;2023-07-31T05:06:30;27.40;;;19.40;;
21360;SDS011;10839;43.206;23.550;2023-07-31T05:08:56;12.50;;;9.57;;
21360;SDS011;10839;43.206;23.550;2023-07-31T05:11:21;9.98;;;8.65;;
21360;SDS011;10839;43.206;23.550;2023-07-31T05:13:47;5.97;;;5.05;;
21360;SDS011;10839;43.206;23.550;2023-07-31T05:16:13;7.85;;;5.28;;
21360;SDS011;10839;43.206;23.550;2023-07-31T05:18:39;4.47;;;3.55;;
21360;SDS011;10839;43.206;23.550;2023-07-31T05:21:04;4.88;;;4.05;;
21360;SDS011;10839;43.206;23.550;2023-07-31T05:23:39;4.47;;;3.88;;
21360;SDS011;10839;43.206;23.550;2023-07-31T05:26:05;3.40;;;3.08;;
21360;SDS011;10839;43.206;23.550;2023-07-31T05:28:34;3.67;;;3.30;;
21360;SDS011;10839;43.206;23.550;2023-07-31T05:31:00;7.07;;;3.20;;
21360;SDS011;10839;43.206;23.550;2023-07-31T05:33:27;4.03;;;2.92;;
21360;SDS011;10839;43.206;23.550;2023-07-31T05:35:53;3.50;;;2.72;;
21360;SDS011;10839;43.206;23.550;2023-07-31T05:38:19;3.25;;;2.60;;
21360;SDS011;10839;43.206;23.550;2023-07-31T05:40:45;2.85;;;2.33;;
21360;SDS011;10839;43.206;23.550;2023-07-31T05:43:11;3.30;;;2.72;;
21360;SDS011;10839;43.206;23.550;2023-07-31T05:45:36;2.83;;;2.63;;
21360;SDS011;10839;43.206;23.550;2023-07-31T05:48:02;2.13;;;1.95;;
21360;SDS011;10839;43.206;23.550;2023-07-31T05:50:29;3.00;;;2.80;;
21360;SDS011;10839;43.206;23.550;2023-07-31T05:52:55;2.65;;;2.28;;
21360;SDS011;10839;43.206;23.550;2023-07-31T05:55:21;2.40;;;2.20;;
21360;SDS011;10839;43.206;23.550;2023-07-31T05:57:47;2.00;;;1.90;;
21360;SDS011;10839;43.206;23.550;2023-07-31T06:00:13;2.67;;;2.10;;
21360;SDS011;10839;43.206;23.550;2023-07-31T06:02:39;2.60;;;2.40;;
21360;SDS011;10839;43.206;23.550;2023-07-31T06:05:06;2.40;;;2.20;;
21360;SDS011;10839;43.206;23.550;2023-07-31T06:07:32;5.18;;;2.17;;
21360;SDS011;10839;43.206;23.550;2023-07-31T06:09:58;1.80;;;1.70;;
21360;SDS011;10839;43.206;23.550;2023-07-31T06:12:29;3.08;;;2.00;;
21360;SDS011;10839;43.206;23.550;2023-07-31T06:14:56;2.85;;;1.70;;
21360;SDS011;10839;43.206;23.550;2023-07-31T06:17:22;1.70;;;1.60;;
21360;SDS011;10839;43.206;23.550;2023-07-31T06:19:49;2.88;;;2.10;;
21360;SDS011;10839;43.206;23.550;2023-07-31T06:22:15;2.75;;;1.70;;
21360;SDS011;10839;43.206;23.550;2023-07-31T06:24:41;1.95;;;1.65;;
21360;SDS011;10839;43.206;23.550;2023-07-31T06:27:07;1.90;;;1.80;;
21360;SDS011;10839;43.206;23.550;2023-07-31T06:29:33;1.80;;;1.70;;
21360;SDS011;10839;43.206;23.550;2023-07-31T06:31:59;4.40;;;2.20;;
21360;SDS011;10839;43.206;23.550;2023-07-31T06:34:25;3.67;;;1.60;;
21360;SDS011;10839;43.206;23.550;2023-07-31T06:36:51;4.20;;;1.60;;
21360;SDS011;10839;43.206;23.550;2023-07-31T06:39:17;1.83;;;1.50;;
21360;SDS011;10839;43.206;23.550;2023-07-31T06:41:43;2.10;;;1.80;;
21360;SDS011;10839;43.206;23.550;2023-07-31T06:44:10;2.83;;;1.65;;
21360;SDS011;10839;43.206;23.550;2023-07-31T06:46:36;2.47;;;2.25;;
21360;SDS011;10839;43.206;23.550;2023-07-31T06:49:02;2.80;;;2.60;;
21360;SDS011;10839;43.206;23.550;2023-07-31T06:51:28;2.85;;;1.90;;
21360;SDS011;10839;43.206;23.550;2023-07-31T06:53:57;1.98;;;1.75;;
21360;SDS011;10839;43.206;23.550;2023-07-31T06:56:23;3.22;;;1.60;;
21360;SDS011;10839;43.206;23.550;2023-07-31T06:58:49;5.45;;;1.90;;
21360;SDS011;10839;43.206;23.550;2023-07-31T07:01:15;3.25;;;1.90;;
21360;SDS011;10839;43.206;23.550;2023-07-31T07:03:41;3.22;;;1.83;;
21360;SDS011;10839;43.206;23.550;2023-07-31T07:06:07;2.70;;;1.83;;
21360;SDS011;10839;43.206;23.550;2023-07-31T07:08:32;5.95;;;1.92;;
21360;SDS011;10839;43.206;23.550;2023-07-31T07:10:58;3.22;;;1.75;;
21360;SDS011;10839;43.206;23.550;2023-07-31T07:13:24;2.30;;;1.77;;
21360;SDS011;10839;43.206;23.550;2023-07-31T07:15:50;2.47;;;2.10;;
21360;SDS011;10839;43.206;23.550;2023-07-31T07:18:16;3.03;;;1.77;;
21360;SDS011;10839;43.206;23.550;2023-07-31T07:20:49;1.83;;;1.73;;
21360;SDS011;10839;43.206;23.550;2023-07-31T07:23:16;3.75;;;1.90;;
21360;SDS011;10839;43.206;23.550;2023-07-31T07:25:42;4.53;;;2.13;;
21360;SDS011;10839;43.206;23.550;2023-07-31T07:28:09;2.42;;;1.77;;
21360;SDS011;10839;43.206;23.550;2023-07-31T07:30:35;3.00;;;1.48;;
21360;SDS011;10839;43.206;23.550;2023-07-31T07:33:01;1.90;;;1.67;;
21360;SDS011;10839;43.206;23.550;2023-07-31T07:35:27;2.58;;;1.80;;
21360;SDS011;10839;43.206;23.550;2023-07-31T07:37:53;2.53;;;1.65;;
21360;SDS011;10839;43.206;23.550;2023-07-31T07:40:20;2.08;;;1.58;;
21360;SDS011;10839;43.206;23.550;2023-07-31T07:42:49;3.08;;;2.08;;
21360;SDS011;10839;43.206;23.550;2023-07-31T07:45:15;1.95;;;1.55;;
21360;SDS011;10839;43.206;23.550;2023-07-31T07:47:41;1.60;;;1.50;;
21360;SDS011;10839;43.206;23.550;2023-07-31T07:50:07;2.63;;;1.75;;
21360;SDS011;10839;43.206;23.550;2023-07-31T07:52:33;3.20;;;1.90;;
21360;SDS011;10839;43.206;23.550;2023-07-31T07:54:59;4.15;;;1.80;;
21360;SDS011;10839;43.206;23.550;2023-07-31T07:57:26;4.03;;;1.63;;
21360;SDS011;10839;43.206;23.550;2023-07-31T07:59:52;3.08;;;2.10;;
21360;SDS011;10839;43.206;23.550;2023-07-31T08:02:18;4.38;;;1.80;;
21360;SDS011;10839;43.206;23.550;2023-07-31T08:04:44;3.47;;;2.05;;
21360;SDS011;10839;43.206;23.550;2023-07-31T08:07:12;3.03;;;1.83;;
21360;SDS011;10839;43.206;23.550;2023-07-31T08:09:38;3.55;;;2.00;;
21360;SDS011;10839;43.206;23.550;2023-07-31T08:12:14;3.72;;;2.00;;
21360;SDS011;10839;43.206;23.550;2023-07-31T08:14:40;3.15;;;1.70;;
21360;SDS011;10839;43.206;23.550;2023-07-31T08:17:05;3.05;;;2.10;;
21360;SDS011;10839;43.206;23.550;2023-07-31T08:19:31;3.85;;;2.20;;
21360;SDS011;10839;43.206;23.550;2023-07-31T08:21:57;3.72;;;1.92;;
21360;SDS011;10839;43.206;23.550;2023-07-31T08:24:24;2.70;;;1.80;;
21360;SDS011;10839;43.206;23.550;2023-07-31T08:26:49;4.95;;;2.03;;
21360;SDS011;10839;43.206;23.550;2023-07-31T08:29:15;4.05;;;2.00;;
21360;SDS011;10839;43.206;23.550;2023-07-31T08:31:41;3.72;;;2.50;;
21360;SDS011;10839;43.206;23.550;2023-07-31T08:34:07;3.80;;;3.15;;
21360;SDS011;10839;43.206;23.550;2023-07-31T08:36:33;16.40;;;10.82;;
21360;SDS011;10839;43.206;23.550;2023-07-31T08:38:59;12.88;;;9.75;;
21360;SDS011;10839;43.206;23.550;2023-07-31T08:41:25;4.75;;;4.03;;
21360;SDS011;10839;43.206;23.550;2023-07-31T08:43:51;8.25;;;3.13;;
21360;SDS011;10839;43.206;23.550;2023-07-31T08:46:17;4.25;;;2.50;;
21360;SDS011;10839;43.206;23.550;2023-07-31T08:48:46;2.97;;;2.70;;
21360;SDS011;10839;43.206;23.550;2023-07-31T08:51:13;2.65;;;2.45;;
21360;SDS011;10839;43.206;23.550;2023-07-31T08:53:40;3.70;;;2.70;;
21360;SDS011;10839;43.206;23.550;2023-07-31T08:56:06;4.28;;;2.40;;
21360;SDS011;10839;43.206;23.550;2023-07-31T08:58:32;4.10;;;2.83;;
21360;SDS011;10839;43.206;23.550;2023-07-31T09:01:01;4.32;;;2.67;;
21360;SDS011;10839;43.206;23.550;2023-07-31T09:03:30;3.67;;;2.83;;
21360;SDS011;10839;43.206;23.550;2023-07-31T09:05:59;3.70;;;2.15;;
21360;SDS011;10839;43.206;23.550;2023-07-31T09:08:26;3.72;;;2.50;;
21360;SDS011;10839;43.206;23.550;2023-07-31T09:11:01;5.43;;;2.60;;
21360;SDS011;10839;43.206;23.550;2023-07-31T09:13:32;2.80;;;2.60;;
21360;SDS011;10839;43.206;23.550;2023-07-31T09:15:59;4.97;;;2.55;;
21360;SDS011;10839;43.206;23.550;2023-07-31T09:18:25;3.35;;;3.05;;
21360;SDS011;10839;43.206;23.550;2023-07-31T09:21:06;5.90;;;2.53;;
21360;SDS011;10839;43.206;23.550;2023-07-31T09:23:43;7.70;;;2.38;;
21360;SDS011;10839;43.206;23.550;2023-07-31T09:26:11;2.83;;;1.92;;
21360;SDS011;10839;43.206;23.550;2023-07-31T09:28:53;2.90;;;2.20;;
21360;SDS011;10839;43.206;23.550;2023-07-31T09:31:31;4.32;;;3.63;;
21360;SDS011;10839;43.206;23.550;2023-07-31T09:34:06;2.47;;;2.22;;
21360;SDS011;10839;43.206;23.550;2023-07-31T09:36:32;2.90;;;2.10;;
21360;SDS011;10839;43.206;23.550;2023-07-31T09:39:06;3.35;;;2.35;;
21360;SDS011;10839;43.206;23.550;2023-07-31T09:41:42;3.92;;;2.78;;
21360;SDS011;10839;43.206;23.550;2023-07-31T09:44:10;3.50;;;2.05;;
21360;SDS011;10839;43.206;23.550;2023-07-31T09:46:37;2.58;;;2.30;;
21360;SDS011;10839;43.206;23.550;2023-07-31T09:49:08;6.68;;;2.38;;
21360;SDS011;10839;43.206;23.550;2023-07-31T09:51:38;3.53;;;2.72;;
21360;SDS011;10839;43.206;23.550;2023-07-31T09:54:12;3.45;;;2.30;;
21360;SDS011;10839;43.206;23.550;2023-07-31T09:56:43;5.97;;;4.57;;
21360;SDS011;10839;43.206;23.550;2023-07-31T09:59:12;3.00;;;2.67;;
21360;SDS011;10839;43.206;23.550;2023-07-31T10:01:40;4.13;;;3.03;;
21360;SDS011;10839;43.206;23.550;2023-07-31T10:04:07;3.33;;;2.08;;
21360;SDS011;10839;43.206;23.550;2023-07-31T10:06:35;3.28;;;2.13;;
21360;SDS011;10839;43.206;23.550;2023-07-31T10:09:05;2.97;;;1.90;;
21360;SDS011;10839;43.206;23.550;2023-07-31T10:11:38;2.17;;;1.83;;
21360;SDS011;10839;43.206;23.550;2023-07-31T10:14:09;2.35;;;2.15;;
21360;SDS011;10839;43.206;23.550;2023-07-31T10:16:37;2.60;;;2.40;;
21360;SDS011;10839;43.206;23.550;2023-07-31T10:19:04;4.03;;;2.35;;
21360;SDS011;10839;43.206;23.550;2023-07-31T10:21:33;4.45;;;2.65;;
21360;SDS011;10839;43.206;23.550;2023-07-31T10:24:02;3.67;;;2.42;;
21360;SDS011;10839;43.206;23.550;2023-07-31T10:26:30;4.35;;;2.55;;
21360;SDS011;10839;43.206;23.550;2023-07-31T10:28:58;2.75;;;2.28;;
21360;SDS011;10839;43.206;23.550;2023-07-31T10:31:25;5.07;;;2.20;;
21360;SDS011;10839;43.206;23.550;2023-07-31T10:33:53;3.05;;;2.30;;
21360;SDS011;10839;43.206;23.550;2023-07-31T10:36:23;2.22;;;2.03;;
21360;SDS011;10839;43.206;23.550;2023-07-31T10:38:49;12.65;;;5.75;;
21360;SDS011;10839;43.206;23.550;2023-07-31T10:41:16;9.20;;;5.28;;
21360;SDS011;10839;43.206;23.550;2023-07-31T10:43:42;9.98;;;4.60;;
21360;SDS011;10839;43.206;23.550;2023-07-31T10:46:09;5.28;;;3.20;;
21360;SDS011;10839;43.206;23.550;2023-07-31T10:48:38;3.78;;;2.00;;
21360;SDS011;10839;43.206;23.550;2023-07-31T10:51:07;7.68;;;4.40;;
21360;SDS011;10839;43.206;23.550;2023-07-31T10:53:41;7.82;;;3.92;;
21360;SDS011;10839;43.206;23.550;2023-07-31T10:56:08;46.13;;;20.70;;
21360;SDS011;10839;43.206;23.550;2023-07-31T10:58:43;31.63;;;14.13;;
21360;SDS011;10839;43.206;23.550;2023-07-31T11:01:11;3.38;;;3.08;;
21360;SDS011;10839;43.206;23.550;2023-07-31T11:03:41;3.05;;;1.80;;
21360;SDS011;10839;43.206;23.550;2023-07-31T11:06:08;2.78;;;1.60;;
21360;SDS011;10839;43.206;23.550;2023-07-31T11:08:35;2.15;;;1.60;;
21360;SDS011;10839;43.206;23.550;2023-07-31T11:11:08;2.00;;;1.38;;
21360;SDS011;10839;43.206;23.550;2023-07-31T11:13:45;5.35;;;1.67;;
21360;SDS011;10839;43.206;23.550;2023-07-31T11:16:20;1.95;;;1.60;;
21360;SDS011;10839;43.206;23.550;2023-07-31T11:18:50;1.95;;;1.60;;
21360;SDS011;10839;43.206;23.550;2023-07-31T11:21:19;2.40;;;1.95;;
21360;SDS011;10839;43.206;23.550;2023-07-31T11:23:50;1.95;;;1.52;;
21360;SDS011;10839;43.206;23.550;2023-07-31T11:26:18;3.08;;;2.25;;
21360;SDS011;10839;43.206;23.550;2023-07-31T11:28:47;4.43;;;3.30;;
21360;SDS011;10839;43.206;23.550;2023-07-31T11:31:14;3.80;;;2.35;;
21360;SDS011;10839;43.206;23.550;2023-07-31T11:33:40;2.50;;;2.30;;
21360;SDS011;10839;43.206;23.550;2023-07-31T11:36:06;1.90;;;1.80;;
21360;SDS011;10839;43.206;23.550;2023-07-31T11:38:39;2.92;;;1.73;;
21360;SDS011;10839;43.206;23.550;2023-07-31T11:41:06;1.90;;;1.73;;
21360;SDS011;10839;43.206;23.550;2023-07-31T11:43:32;2.67;;;2.10;;
21360;SDS011;10839;43.206;23.550;2023-07-31T11:45:59;2.47;;;2.00;;
21360;SDS011;10839;43.206;23.550;2023-07-31T11:48:29;2.10;;;1.80;;
21360;SDS011;10839;43.206;23.550;2023-07-31T11:51:00;3.63;;;1.90;;
21360;SDS011;10839;43.206;23.550;2023-07-31T11:53:28;1.98;;;1.55;;
21360;SDS011;10839;43.206;23.550;2023-07-31T11:56:10;3.25;;;1.83;;
21360;SDS011;10839;43.206;23.550;2023-07-31T11:58:38;2.03;;;1.83;;
21360;SDS011;10839;43.206;23.550;2023-07-31T12:01:06;2.92;;;1.88;;
21360;SDS011;10839;43.206;23.550;2023-07-31T12:03:33;3.72;;;2.28;;
21360;SDS011;10839;43.206;23.550;2023-07-31T12:06:00;5.93;;;3.55;;
21360;SDS011;10839;43.206;23.550;2023-07-31T12:08:26;6.05;;;2.85;;
21360;SDS011;10839;43.206;23.550;2023-07-31T12:10:53;2.88;;;2.53;;
21360;SDS011;10839;43.206;23.550;2023-07-31T12:13:20;6.25;;;3.33;;
21360;SDS011;10839;43.206;23.550;2023-07-31T12:15:48;2.92;;;2.65;;
21360;SDS011;10839;43.206;23.550;2023-07-31T12:18:18;2.65;;;2.40;;
21360;SDS011;10839;43.206;23.550;2023-07-31T12:20:47;3.85;;;2.15;;
21360;SDS011;10839;43.206;23.550;2023-07-31T12:25:42;3.63;;;2.40;;
21360;SDS011;10839;43.206;23.550;2023-07-31T12:28:08;3.72;;;2.40;;
21360;SDS011;10839;43.206;23.550;2023-07-31T12:30:37;4.88;;;2.75;;
21360;SDS011;10839;43.206;23.550;2023-07-31T12:33:06;2.83;;;2.25;;
21360;SDS011;10839;43.206;23.550;2023-07-31T12:35:46;4.43;;;2.40;;
21360;SDS011;10839;43.206;23.550;2023-07-31T12:38:13;3.72;;;2.28;;
21360;SDS011;10839;43.206;23.550;2023-07-31T12:40:39;2.92;;;2.40;;
21360;SDS011;10839;43.206;23.550;2023-07-31T12:43:07;4.75;;;3.97;;
21360;SDS011;10839;43.206;23.550;2023-07-31T12:45:34;3.00;;;2.40;;
21360;SDS011;10839;43.206;23.550;2023-07-31T12:48:00;2.75;;;2.42;;
21360;SDS011;10839;43.206;23.550;2023-07-31T12:50:27;3.90;;;3.50;;
21360;SDS011;10839;43.206;23.550;2023-07-31T12:52:53;6.25;;;2.30;;
21360;SDS011;10839;43.206;23.550;2023-07-31T12:55:21;3.80;;;3.42;;
21360;SDS011;10839;43.206;23.550;2023-07-31T12:57:47;3.13;;;2.40;;
21360;SDS011;10839;43.206;23.550;2023-07-31T13:00:13;6.03;;;3.17;;
21360;SDS011;10839;43.206;23.550;2023-07-31T13:02:39;2.95;;;2.75;;
21360;SDS011;10839;43.206;23.550;2023-07-31T13:05:05;3.42;;;2.38;;
21360;SDS011;10839;43.206;23.550;2023-07-31T13:07:32;3.50;;;2.90;;
21360;SDS011;10839;43.206;23.550;2023-07-31T13:09:57;5.38;;;3.42;;
21360;SDS011;10839;43.206;23.550;2023-07-31T13:12:24;5.65;;;4.22;;
21360;SDS011;10839;43.206;23.550;2023-07-31T13:14:50;4.15;;;2.83;;
21360;SDS011;10839;43.206;23.550;2023-07-31T13:17:17;4.28;;;3.85;;
21360;SDS011;10839;43.206;23.550;2023-07-31T13:19:43;5.97;;;4.00;;
21360;SDS011;10839;43.206;23.550;2023-07-31T13:22:09;4.50;;;3.67;;
21360;SDS011;10839;43.206;23.550;2023-07-31T13:24:35;4.47;;;4.03;;
21360;SDS011;10839;43.206;23.550;2023-07-31T13:27:01;4.45;;;4.05;;
21360;SDS011;10839;43.206;23.550;2023-07-31T13:29:27;3.97;;;3.67;;
21360;SDS011;10839;43.206;23.550;2023-07-31T13:31:55;7.18;;;4.47;;
21360;SDS011;10839;43.206;23.550;2023-07-31T13:34:21;4.70;;;4.30;;
21360;SDS011;10839;43.206;23.550;2023-07-31T13:36:47;5.50;;;5.00;;
21360;SDS011;10839;43.206;23.550;2023-07-31T13:39:13;6.28;;;4.20;;
21360;SDS011;10839;43.206;23.550;2023-07-31T13:41:39;3.80;;;3.50;;
21360;SDS011;10839;43.206;23.550;2023-07-31T13:44:05;4.22;;;3.83;;
21360;SDS011;10839;43.206;23.550;2023-07-31T13:46:30;4.63;;;4.22;;
21360;SDS011;10839;43.206;23.550;2023-07-31T13:48:58;16.63;;;13.18;;
21360;SDS011;10839;43.206;23.550;2023-07-31T13:51:25;5.72;;;5.13;;
21360;SDS011;10839;43.206;23.550;2023-07-31T13:53:53;5.93;;;4.90;;
21360;SDS011;10839;43.206;23.550;2023-07-31T13:56:19;5.55;;;5.03;;
21360;SDS011;10839;43.206;23.550;2023-07-31T13:58:44;8.02;;;4.05;;
21360;SDS011;10839;43.206;23.550;2023-07-31T14:01:10;4.50;;;4.10;;
21360;SDS011;10839;43.206;23.550;2023-07-31T14:03:36;4.53;;;3.58;;
21360;SDS011;10839;43.206;23.550;2023-07-31T14:06:02;3.47;;;3.22;;
21360;SDS011;10839;43.206;23.550;2023-07-31T14:08:29;4.43;;;2.78;;
21360;SDS011;10839;43.206;23.550;2023-07-31T14:10:55;5.03;;;3.80;;
21360;SDS011;10839;43.206;23.550;2023-07-31T14:13:21;5.60;;;4.55;;
21360;SDS011;10839;43.206;23.550;2023-07-31T14:15:47;4.80;;;3.70;;
21360;SDS011;10839;43.206;23.550;2023-07-31T14:18:13;4.20;;;3.50;;
21360;SDS011;10839;43.206;23.550;2023-07-31T14:20:39;6.93;;;3.90;;
21360;SDS011;10839;43.206;23.550;2023-07-31T14:23:05;6.43;;;3.65;;
21360;SDS011;10839;43.206;23.550;2023-07-31T14:25:31;4.10;;;3.80;;
21360;SDS011;10839;43.206;23.550;2023-07-31T14:27:57;4.95;;;4.32;;
21360;SDS011;10839;43.206;23.550;2023-07-31T14:30:23;7.82;;;3.58;;
21360;SDS011;10839;43.206;23.550;2023-07-31T14:32:49;2.85;;;2.53;;
21360;SDS011;10839;43.206;23.550;2023-07-31T14:35:15;3.72;;;2.55;;
21360;SDS011;10839;43.206;23.550;2023-07-31T14:37:42;3.67;;;2.80;;